FW0099 Weather Reports


Display with metric or nautical units.
time (UTC)temp
F
wind
direction
speed
MPH
gust
MPH
rain 1hr
in
rain 24hr
in
rain mn
in
humidity
%
barometer
mb
20201026222020 49 180 4.0 7.0 0.00 0.02 0.02 88 1001.8
20201026221022 50 190 2.0 6.0 0.00 0.02 0.02 88 1001.7
20201026220024 50 206 0.0 9.0 0.00 0.02 0.02 87 1001.7
20201026215018 50 159 1.0 10.0 0.00 0.02 0.02 87 1001.7
20201026214023 50 180 4.0 10.0 0.00 0.02 0.02 88 1001.7
20201026213021 50 188 5.0 10.0 0.00 0.02 0.02 88 1001.7
20201026212019 50 208 2.0 11.0 0.00 0.02 0.02 88 1001.6
20201026211021 49 179 3.0 14.0 0.00 0.02 0.02 89 1001.6
20201026210026 49 176 5.0 12.0 0.00 0.02 0.02 89 1001.5
20201026205028 49 191 6.0 11.0 0.00 0.02 0.02 89 1001.4
20201026204035 49 194 5.0 11.0 0.00 0.02 0.02 89 1001.4
20201026203034 49 182 4.0 7.0 0.00 0.02 0.02 89 1001.4
20201026202027 49 167 3.0 5.0 0.00 0.02 0.02 89 1001.4
20201026201013 49 198 2.0 11.0 0.00 0.02 0.02 89 1001.3
20201026200055 49 185 4.0 8.0 0.00 0.02 0.02 89 1001.3
20201026195016 49 175 3.0 9.0 0.00 0.02 0.02 90 1001.3
20201026194014 49 179 4.0 10.0 0.00 0.02 0.02 90 1001.2
20201026193027 49 208 4.0 9.0 0.00 0.02 0.02 90 1001.1
20201026192043 49 194 5.0 10.0 0.00 0.02 0.02 90 1001.0
20201026191041 49 157 2.0 5.0 0.00 0.02 0.02 90 1000.9
20201026190031 49 177 4.0 7.0 0.00 0.02 0.02 90 1000.9
20201026185019 49 181 2.0 4.0 0.00 0.02 0.02 90 1000.9
20201026184016 49 163 4.0 7.0 0.00 0.02 0.02 89 1000.9
20201026183021 49 152 2.0 5.0 0.00 0.02 0.02 88 1001.0
20201026182034 50 139 1.0 3.0 0.00 0.02 0.02 85 1000.9
20201026181026 50 178 4.0 9.0 0.00 0.02 0.02 84 1001.0
20201026180024 51 173 4.0 8.0 0.00 0.02 0.02 84 1001.0
20201026175015 51 175 3.0 10.0 0.00 0.02 0.02 83 1000.9
20201026174022 51 202 3.0 9.0 0.00 0.02 0.02 83 1000.7
20201026173031 51 204 4.0 11.0 0.00 0.02 0.02 83 1000.7
20201026172016 51 167 3.0 7.0 0.00 0.02 0.02 83 1000.5
20201026171028 51 189 2.0 6.0 0.00 0.02 0.02 83 1000.4
20201026170028 51 197 2.0 5.0 0.00 0.02 0.02 83 1000.3
20201026165021 51 168 3.0 10.0 0.00 0.02 0.02 83 1000.4
20201026164025 51 189 4.0 9.0 0.00 0.02 0.02 84 1000.3
20201026163026 52 176 3.0 7.0 0.00 0.02 0.02 84 1000.4
20201026162029 52 191 5.0 9.0 0.00 0.02 0.02 82 1000.3
20201026161015 51 184 8.0 13.0 0.00 0.02 0.02 84 1000.3
20201026160019 51 229 2.0 5.0 0.00 0.02 0.02 84 1000.3
20201026155021 52 206 1.0 4.0 0.00 0.02 0.02 83 1000.3
20201026154016 52 159 3.0 7.0 0.00 0.02 0.02 84 1000.3
20201026153021 52 194 2.0 5.0 0.01 0.02 0.02 84 1000.3
20201026152020 52 163 4.0 9.0 0.01 0.02 0.02 84 1000.4
20201026151023 52 159 0.0 8.0 0.01 0.02 0.02 84 1000.3
20201026150021 52 173 4.0 9.0 0.01 0.02 0.02 85 1000.1
20201026145020 52 193 4.0 7.0 0.01 0.02 0.02 86 1000.1
20201026144025 52 198 1.0 5.0 0.00 0.02 0.01 84 1000.1
20201026143030 53 164 3.0 6.0 0.00 0.01 0.00 80 1000.2
20201026142018 53 155 2.0 5.0 0.00 0.01 0.00 78 1000.1
20201026141028 53 156 3.0 6.0 0.00 0.01 0.00 77 1000.1
20201026140021 53 187 4.0 9.0 0.00 0.01 0.00 77 1000.0
20201026135017 53 186 4.0 10.0 0.00 0.01 0.00 77 999.9
20201026134015 54 210 2.0 5.0 0.00 0.01 0.00 77 999.8
20201026133019 54 200 4.0 9.0 0.00 0.01 0.00 76 999.8
20201026132030 54 201 8.0 15.0 0.00 0.01 0.00 76 999.7
20201026131025 54 205 3.0 6.0 0.00 0.01 0.00 78 999.7
20201026130031 54 208 8.0 14.0 0.00 0.01 0.00 76 999.7
20201026125021 54 168 8.0 15.0 0.00 0.01 0.00 78 999.7
20201026124026 54 213 4.0 8.0 0.00 0.01 0.00 78 999.8
20201026123030 54 188 5.0 13.0 0.00 0.01 0.00 76 999.8
20201026122019 54 196 3.0 8.0 0.00 0.01 0.00 78 999.9
20201026121022 53 204 4.0 9.0 0.00 0.01 0.00 78 999.8
20201026120037 53 185 4.0 7.0 0.00 0.01 0.00 80 1000.0
20201026115019 53 185 3.0 7.0 0.00 0.01 0.00 80 999.9
20201026114015 53 179 4.0 14.0 0.00 0.01 0.00 79 1000.0
20201026113025 54 183 3.0 9.0 0.00 0.02 0.00 80 1000.1
20201026112019 53 188 5.0 8.0 0.00 0.02 0.00 82 1000.2
20201026111024 52 181 6.0 13.0 0.00 0.03 0.00 82 1000.2
20201026110022 52 189 6.0 16.0 0.00 0.03 0.00 84 1000.3
20201026105027 51 181 6.0 14.0 0.00 0.03 0.00 84 1000.3
20201026104018 51 196 5.0 10.0 0.00 0.03 0.00 85 1000.4
20201026103027 51 179 2.0 6.0 0.00 0.03 0.00 86 1000.3
20201026102018 51 195 5.0 11.0 0.00 0.03 0.00 86 1000.2
20201026101021 51 184 8.0 13.0 0.00 0.05 0.00 85 1000.2
20201026100037 51 188 5.0 10.0 0.00 0.07 0.00 87 1000.2
20201026095015 50 194 4.0 7.0 0.00 0.07 0.00 89 1000.3
20201026094015 50 188 5.0 12.0 0.00 0.07 0.00 90 1000.2
20201026093027 49 228 3.0 10.0 0.00 0.07 0.00 91 1000.2
20201026092021 49 141 1.0 7.0 0.00 0.07 0.00 91 1000.4
20201026091017 49 196 3.0 7.0 0.00 0.07 0.00 92 1000.4
20201026090024 48 188 4.0 10.0 0.00 0.07 0.00 93 1000.2
20201026085017 48 171 5.0 10.0 0.00 0.07 0.00 94 1000.4
20201026084015 47 156 2.0 6.0 0.00 0.07 0.00 95 1000.4
20201026083019 47 186 4.0 6.0 0.00 0.07 0.00 95 1000.2
20201026082022 47 164 1.0 4.0 0.00 0.07 0.00 96 1000.1
20201026081047 47 188 3.0 6.0 0.00 0.07 0.00 96 1000.1
20201026080029 46 145 1.0 4.0 0.00 0.08 0.00 96 1000.4
20201026075024 46 176 3.0 5.0 0.00 0.08 0.00 96 1000.5
20201026074014 46 184 2.0 4.0 0.00 0.10 0.00 96 1000.4
20201026073042 46 243 1.0 7.0 0.00 0.11 0.00 96 1000.3
20201026072017 47 199 4.0 7.0 0.00 0.13 0.00 97 1000.3
20201026071030 47 185 2.0 5.0 0.00 0.14 0.00 97 1000.2
20201026070034 47 224 3.0 7.0 0.00 0.14 0.00 97 1000.4
20201026065017 46 204 4.0 8.0 0.00 0.16 0.00 97 1000.5
20201026064016 46 185 3.0 5.0 0.00 0.18 0.00 97 1000.4
20201026063027 46 177 2.0 4.0 0.00 0.20 0.00 97 1000.2
20201026062027 47 160 1.0 3.0 0.00 0.22 0.00 97 999.8
20201026061015 47 195 1.0 5.0 0.00 0.24 0.00 97 999.5
20201026060024 47 180 3.0 6.0 0.00 0.26 0.00 97 999.8
20201026055018 47 180 3.0 7.0 0.00 0.29 0.00 97 999.7
20201026054018 47 181 1.0 4.0 0.00 0.29 0.00 97 999.4
20201026053021 47 181 2.0 6.0 0.00 0.30 0.00 97 999.2
20201026052018 47 174 3.0 4.0 0.00 0.30 0.00 96 999.0
20201026051037 48 174 2.0 5.0 0.00 0.30 0.00 96 999.1
20201026050025 48 221 1.0 4.0 0.00 0.30 0.00 96 999.1
20201026045022 48 171 2.0 8.0 0.00 0.30 0.00 96 999.1
20201026044017 48 193 4.0 6.0 0.00 0.30 0.00 97 999.2
20201026043024 48 190 3.0 6.0 0.00 0.30 0.00 97 999.5
20201026042017 48 163 1.0 3.0 0.00 0.30 0.00 97 999.5
20201026041022 48 171 2.0 5.0 0.00 0.30 0.00 97 999.4
20201026040029 47 186 0.0 5.0 0.00 0.30 0.00 97 999.4
20201026035025 47 185 2.0 5.0 0.00 0.30 0.00 97 999.5
20201026034029 47 181 3.0 6.0 0.00 0.30 0.00 97 999.5
20201026033036 47 177 2.0 4.0 0.00 0.30 0.00 97 999.4
20201026032014 48 184 2.0 5.0 0.00 0.30 0.00 97 999.5
20201026031021 48 180 0.0 6.0 0.00 0.30 0.00 97 999.4
20201026030022 48 173 1.0 4.0 0.00 0.30 0.00 97 999.6
20201026025014 48 172 4.0 6.0 0.00 0.30 0.00 97 999.4
20201026024028 48 165 2.0 4.0 0.00 0.30 0.00 97 999.4
20201026023025 48 173 3.0 7.0 0.00 0.30 0.00 97 999.2
20201026022020 48 136 1.0 5.0 0.00 0.30 0.00 97 999.3
20201026021041 48 165 3.0 6.0 0.00 0.30 0.00 97 999.2
20201026020024 48 165 3.0 6.0 0.00 0.30 0.00 97 999.2
20201026015024 48 229 1.0 4.0 0.00 0.30 0.00 97 999.4
20201026014016 49 182 0.0 3.0 0.00 0.30 0.00 97 999.5
20201026013020 49 159 2.0 5.0 0.00 0.30 0.00 98 999.7
20201026012014 49 183 2.0 5.0 0.00 0.30 0.00 98 999.5
20201026011016 48 187 0.0 7.0 0.00 0.30 0.00 98 999.2
20201026010028 48 0.0 0.0 0.00 0.30 0.00 98 999.2
20201026005018 48 0.0 2.0 0.00 0.30 0.00 97 999.2
20201026004027 48 0.0 0.0 0.00 0.30 0.00 97 999.3
20201026003028 48 0.0 1.0 0.00 0.30 0.00 97 999.5
20201026002016 48 192 0.0 1.0 0.00 0.30 0.00 97 999.5
20201026001019 48 0.0 3.0 0.00 0.30 0.00 97 999.6
20201026000020 49 0.0 1.0 0.00 0.30 0.00 97 999.6
20201025235032 49 192 0.0 4.0 0.00 0.30 0.00 97 999.7
20201025234017 50 199 1.0 4.0 0.00 0.30 0.00 97 999.7
20201025233023 50 0.0 0.0 0.00 0.30 0.00 97 999.7
20201025232024 50 186 1.0 3.0 0.00 0.29 0.00 97 999.9
20201025231031 50 179 4.0 5.0 0.00 0.29 0.00 96 999.8
20201025230019 50 167 1.0 5.0 0.00 0.29 0.29 96 1000.1
20201025225023 50 162 2.0 4.0 0.00 0.29 0.29 96 1000.0
20201025224018 50 192 4.0 7.0 0.00 0.29 0.29 97 1000.0
20201025223030 50 152 3.0 6.0 0.00 0.29 0.29 97 1000.2